Sigfox identifier Datetime Temperature Humidity SNR
003A1E38 2019-06-03 15:55:58 15.9 44 11.1
003A1E38 2019-06-03 14:49:20 15.2 44 10.9
003A1E38 2019-06-03 13:42:44 14.6 43 10.8
003A1E38 2019-06-03 12:36:06 13.8 44 10.9
003A1E38 2019-06-03 10:22:56 11.8 41 10.7
003A1E38 2019-06-03 09:16:21 11.4 39 9.9
003A1E38 2019-06-03 08:09:41 11.5 38 9.9
003A1E38 2019-06-03 07:03:00 12 37 9.9
003A1E38 2019-06-03 05:56:20 12.7 37 8.3
003A1E38 2019-06-03 04:49:43 13.6 37 8.4
003A1E38 2019-06-03 01:30:05 16 39 8.5
003A1E38 2019-06-03 00:23:38 16.5 40 8.6
003A1E38 2019-06-02 23:17:06 16.9 41 8.5
003A1E38 2019-06-02 22:10:36 16.9 41 8.5
003A1E38 2019-06-02 21:04:07 16.5 42 8.5
003A1E38 2019-06-02 19:57:37 16 41 8.6
003A1E38 2019-06-02 18:51:07 15.2 41 8.6
003A1E38 2019-06-02 17:44:39 14.4 40 8.7
003A1E38 2019-06-02 16:38:03 13.8 39 8.9
003A1E38 2019-06-02 15:31:23 13.2 38 8.9
003A1E38 2019-06-02 14:24:47 13 38 9
003A1E38 2019-06-02 13:18:14 12.9 37 8.9
003A1E38 2019-06-02 12:11:34 12.9 37 9.1
003A1E38 2019-06-02 11:04:58 12.9 37 16.8
003A1E38 2019-06-02 09:58:21 13 36 16.8
003A1E38 2019-06-02 08:51:44 13.1 36 16.8
003A1E38 2019-06-02 07:45:05 13.3 36 16.9
003A1E38 2019-06-02 06:38:26 13.6 36 17
003A1E38 2019-06-02 05:31:49 14 36 17
003A1E38 2019-06-02 04:25:11 14.3 35 17
003A1E38 2019-06-02 03:18:38 14.7 35 17.1
003A1E38 2019-06-02 02:12:01 15.3 35 17.1
003A1E38 2019-06-02 01:05:23 15.9 35 17.1
003A1E38 2019-06-01 23:58:48 16.5 36 17.2
003A1E38 2019-06-01 22:52:16 17.1 36 17.5
003A1E38 2019-06-01 21:45:46 17.6 36 17.5
003A1E38 2019-06-01 20:39:19 18.1 37 18.5
003A1E38 2019-06-01 19:32:55 18.5 37 19.2
003A1E38 2019-06-01 18:26:29 18.4 38 19.6
003A1E38 2019-06-01 17:20:03 18.4 38 19.8
003A1E38 2019-06-01 16:13:35 18.2 38 20.2
003A1E38 2019-06-01 15:07:04 18 38 20.9
003A1E38 2019-06-01 14:00:36 17.7 37 20.9
003A1E38 2019-06-01 12:54:06 17.6 36 21.4
003A1E38 2019-06-01 11:47:39 17.6 36 21.9
003A1E38 2019-06-01 10:41:03 17.8 35 22.6
003A1E38 2019-06-01 09:34:32 18.3 35 23.2
003A1E38 2019-06-01 08:28:03 18.7 36 23.4
003A1E38 2019-06-01 07:21:34 18.8 36 22.7
003A1E38 2019-06-01 06:15:07 18.9 36 22.9
003A1E38 2019-06-01 05:08:39 18.9 36 23.3
003A1E38 2019-06-01 04:02:12 18.9 36 23.7
003A1E38 2019-06-01 02:55:46 19.1 36 23.9
003A1E38 2019-06-01 00:42:50 19.3 37 24.3
003A1E38 2019-05-31 23:36:23 19.4 37 24.7
003A1E38 2019-05-31 22:29:57 19.7 37 25
003A1E38 2019-05-31 21:23:30 19.9 38 25.3
003A1E38 2019-05-31 20:17:02 20.2 39 25.6
003A1E38 2019-05-31 19:10:35 20.4 39 25.8
003A1E38 2019-05-31 18:04:09 20.6 40 26
003A1E38 2019-05-31 16:57:43 21 41 26.2
003A1E38 2019-05-31 14:44:48 20.8 41 26.2
003A1E38 2019-05-31 13:38:20 20.8 41 26.2
003A1E38 2019-05-31 12:31:54 20.8 41 26.3
003A1E38 2019-05-31 11:25:27 20.6 42 26.5
003A1E38 2019-05-31 10:19:00 20.6 42 26.6
003A1E38 2019-05-31 09:12:33 20.5 42 26.7
003A1E38 2019-05-31 08:06:04 20.5 42 26.9
003A1E38 2019-05-31 06:59:38 20.4 42 26.9
003A1E38 2019-05-31 05:53:15 20.4 42 26.9
003A1E38 2019-05-31 04:46:53 20.4 43 26.8
003A1E38 2019-05-31 03:40:31 20.4 43 26.7
003A1E38 2019-05-31 02:34:06 20.4 43 26.9
003A1E38 2019-05-31 01:27:41 20.4 43 26.9
003A1E38 2019-05-31 00:21:14 20.4 43 26.9
003A1E38 2019-05-30 23:14:48 20.3 43 26.8
003A1E38 2019-05-30 22:08:21 20.3 44 26.7
003A1E38 2019-05-30 21:01:59 20.3 44 26.6
003A1E38 2019-05-30 19:55:36 20.2 44 26.4
003A1E38 2019-05-30 18:49:14 20.4 44 26.4
003A1E38 2019-05-30 17:42:53 20.4 44 26.4
003A1E38 2019-05-30 16:36:33 20.4 45 26.3
003A1E38 2019-05-30 15:30:09 20.4 45 26.2
003A1E38 2019-05-30 14:23:45 20.6 45 26
003A1E38 2019-05-30 13:17:21 20.6 45 26
003A1E38 2019-05-30 12:10:57 20.6 45 26
003A1E38 2019-05-30 11:04:32 20.6 46 26.2
003A1E38 2019-05-30 09:58:06 20.6 46 26.2
003A1E38 2019-05-30 08:51:41 20.7 46 26.1
003A1E38 2019-05-30 07:45:16 20.7 46 25.8
003A1E38 2019-05-30 06:38:51 20.8 46 25.8
003A1E38 2019-05-30 05:32:26 20.8 47 25.8
003A1E38 2019-05-30 04:25:59 20.8 47 25.8
003A1E38 2019-05-30 03:19:32 20.8 47 25.7
003A1E38 2019-05-30 02:13:05 21 47 25.8
003A1E38 2019-05-30 01:06:36 21 47 25.7
003A1E38 2019-05-30 00:00:07 21 47 25.7
003A1E38 2019-05-29 22:53:38 21 48 25.6
003A1E38 2019-05-29 21:47:10 21.1 48 25.7
003A1E38 2019-05-29 20:40:45 21.2 48 25.7
003A1E38 2019-05-29 19:34:20 21.2 48 25.6
003A1E38 2019-05-29 18:27:52 21.2 48 25.7
003A1E38 2019-05-29 17:21:26 21.2 48 25.5
003A1E38 2019-05-29 16:14:59 21 47 25.3
003A1E38 2019-05-29 15:08:33 21 47 25
003A1E38 2019-05-29 14:02:08 21 47 24.9
003A1E38 2019-05-29 12:55:40 21 47 24.6
003A1E38 2019-05-29 11:49:14 21 47 24.6
003A1E38 2019-05-29 10:42:47 21 46 24.4
003A1E38 2019-05-29 09:36:22 21 46 24.2
003A1E38 2019-05-29 08:29:54 21 46 23.7
003A1E38 2019-05-29 07:23:27 21 46 23.4
003A1E38 2019-05-29 06:16:59 21 46 23.1
003A1E38 2019-05-29 05:10:30 21 46 22.8
003A1E38 2019-05-29 04:04:02 21 46 22.6
003A1E38 2019-05-29 02:57:37 21.1 46 22.2
003A1E38 2019-05-29 01:51:10 21 46 21.6
003A1E38 2019-05-29 00:44:43 21 46 21.2
003A1E38 2019-05-28 23:38:15 21 46 20.7
003A1E38 2019-05-28 22:31:47 21 46 19.9
003A1E38 2019-05-28 21:25:18 21 46 19.4
003A1E38 2019-05-28 20:18:49 21 46 18.7
003A1E38 2019-05-28 19:12:21 21 46 18.4
003A1E38 2019-05-28 18:05:54 21 45 16.9
003A1E38 2019-05-28 16:59:27 21 45 15.8
003A1E38 2019-05-28 15:53:02 21 45 15.1
003A1E38 2019-05-28 14:46:33 20.9 45 12.4
003A1E38 2019-05-28 12:33:40 20.8 45 12.6
003A1E38 2019-05-28 11:27:14 20.8 45 12.6
003A1E38 2019-05-28 10:20:43 20.8 45 12.9
003A1E38 2019-05-28 09:14:12 20.8 45 12.5
003A1E38 2019-05-28 08:07:43 20.9 45 12.6
003A1E38 2019-05-28 07:01:16 20.9 45 12.5
003A1E38 2019-05-28 05:54:46 20.9 45 12.7
003A1E38 2019-05-28 04:48:20 20.9 45 11.7
003A1E38 2019-05-28 03:41:53 20.9 45 12.1
003A1E38 2019-05-28 02:35:25 21 45 12
003A1E38 2019-05-28 01:28:58 21 45 12.4
003A1E38 2019-05-28 00:22:32 21 45 12.2
003A1E38 2019-05-27 22:09:30 21 46 12.1
003A1E38 2019-05-27 21:03:03 21 46 12.5
003A1E38 2019-05-27 19:56:35 21 46 11.8
003A1E38 2019-05-27 18:50:07 21.2 46 12.5
003A1E38 2019-05-27 17:43:29 21.3 46 14.9
003A1E38 2019-05-27 15:30:23 21.3 51 0